sensor_id;sensor_type;location;lat;lon;timestamp;pressure;altitude;pressure_sealevel;temperature;humidity
67840;BME280;54636;51.684;5.142;2022-07-18T00:01:36;102452.75;;;16.20;69.49
67840;BME280;54636;51.684;5.142;2022-07-18T00:04:01;102445.69;;;16.13;69.53
67840;BME280;54636;51.684;5.142;2022-07-18T00:06:27;102442.59;;;16.06;69.46
67840;BME280;54636;51.684;5.142;2022-07-18T00:08:53;102443.84;;;16.05;69.68
67840;BME280;54636;51.684;5.142;2022-07-18T00:11:19;102440.06;;;16.02;69.74
67840;BME280;54636;51.684;5.142;2022-07-18T00:13:44;102440.00;;;15.97;70.40
67840;BME280;54636;51.684;5.142;2022-07-18T00:16:10;102433.47;;;15.94;70.04
67840;BME280;54636;51.684;5.142;2022-07-18T00:18:35;102429.72;;;15.92;69.73
67840;BME280;54636;51.684;5.142;2022-07-18T00:21:01;102428.41;;;15.87;70.81
67840;BME280;54636;51.684;5.142;2022-07-18T00:23:26;102429.09;;;15.82;70.99
67840;BME280;54636;51.684;5.142;2022-07-18T00:25:52;102429.56;;;15.80;70.70
67840;BME280;54636;51.684;5.142;2022-07-18T00:28:17;102421.53;;;15.77;71.08
67840;BME280;54636;51.684;5.142;2022-07-18T00:30:43;102421.53;;;15.77;70.94
67840;BME280;54636;51.684;5.142;2022-07-18T00:33:08;102426.75;;;15.75;71.14
67840;BME280;54636;51.684;5.142;2022-07-18T00:35:34;102429.22;;;15.73;71.92
67840;BME280;54636;51.684;5.142;2022-07-18T00:38:00;102431.66;;;15.71;71.64
67840;BME280;54636;51.684;5.142;2022-07-18T00:40:27;102421.38;;;15.66;72.29
67840;BME280;54636;51.684;5.142;2022-07-18T00:42:53;102427.53;;;15.61;73.13
67840;BME280;54636;51.684;5.142;2022-07-18T00:45:18;102417.25;;;15.56;73.09
67840;BME280;54636;51.684;5.142;2022-07-18T00:47:44;102423.41;;;15.51;73.05
67840;BME280;54636;51.684;5.142;2022-07-18T00:50:10;102423.88;;;15.49;73.03
67840;BME280;54636;51.684;5.142;2022-07-18T00:52:36;102413.88;;;15.46;73.98
67840;BME280;54636;51.684;5.142;2022-07-18T00:55:05;102414.34;;;15.44;73.85
67840;BME280;54636;51.684;5.142;2022-07-18T00:57:30;102408.88;;;15.44;74.05
67840;BME280;54636;51.684;5.142;2022-07-18T00:59:56;102402.63;;;15.44;73.61
67840;BME280;54636;51.684;5.142;2022-07-18T01:02:40;102398.88;;;15.41;74.27
67840;BME280;54636;51.684;5.142;2022-07-18T01:05:07;102391.59;;;15.38;74.00
67840;BME280;54636;51.684;5.142;2022-07-18T01:07:34;102382.34;;;15.36;74.26
67840;BME280;54636;51.684;5.142;2022-07-18T01:10:00;102395.00;;;15.33;74.19
67840;BME280;54636;51.684;5.142;2022-07-18T01:12:27;102396.25;;;15.32;73.77
67840;BME280;54636;51.684;5.142;2022-07-18T01:14:52;102394.94;;;15.28;73.66
67840;BME280;54636;51.684;5.142;2022-07-18T01:17:19;102400.97;;;15.32;73.24
67840;BME280;54636;51.684;5.142;2022-07-18T01:19:45;102395.13;;;15.24;73.63
67840;BME280;54636;51.684;5.142;2022-07-18T01:22:13;102403.34;;;15.24;73.46
67840;BME280;54636;51.684;5.142;2022-07-18T01:24:39;102408.53;;;15.22;73.31
67840;BME280;54636;51.684;5.142;2022-07-18T01:27:05;102405.78;;;15.22;73.21
67840;BME280;54636;51.684;5.142;2022-07-18T01:29:30;102407.69;;;15.16;73.45
67840;BME280;54636;51.684;5.142;2022-07-18T01:31:56;102403.81;;;15.08;73.95
67840;BME280;54636;51.684;5.142;2022-07-18T01:34:22;102412.50;;;15.06;73.75
67840;BME280;54636;51.684;5.142;2022-07-18T01:36:48;102407.69;;;15.01;73.76
67840;BME280;54636;51.684;5.142;2022-07-18T01:39:13;102401.66;;;14.97;73.77
67840;BME280;54636;51.684;5.142;2022-07-18T01:41:39;102393.09;;;14.90;73.92
67840;BME280;54636;51.684;5.142;2022-07-18T01:44:06;102398.38;;;14.93;74.14
67840;BME280;54636;51.684;5.142;2022-07-18T01:46:31;102393.84;;;14.90;73.79
67840;BME280;54636;51.684;5.142;2022-07-18T01:48:56;102396.13;;;14.92;73.99
67840;BME280;54636;51.684;5.142;2022-07-18T01:51:22;102388.38;;;14.90;73.38
67840;BME280;54636;51.684;5.142;2022-07-18T01:53:54;102385.34;;;14.88;73.28
67840;BME280;54636;51.684;5.142;2022-07-18T01:56:20;102375.84;;;14.83;73.23
67840;BME280;54636;51.684;5.142;2022-07-18T01:58:46;102371.69;;;14.88;72.73
67840;BME280;54636;51.684;5.142;2022-07-18T02:01:12;102378.38;;;14.87;72.52
67840;BME280;54636;51.684;5.142;2022-07-18T02:03:37;102378.38;;;14.87;72.43
67840;BME280;54636;51.684;5.142;2022-07-18T02:06:03;102376.41;;;14.88;72.07
67840;BME280;54636;51.684;5.142;2022-07-18T02:08:28;102373.38;;;14.86;72.18
67840;BME280;54636;51.684;5.142;2022-07-18T02:10:54;102378.84;;;14.86;72.29
67840;BME280;54636;51.684;5.142;2022-07-18T02:13:19;102384.59;;;14.88;72.08
67840;BME280;54636;51.684;5.142;2022-07-18T02:15:46;102375.63;;;14.87;72.32
67840;BME280;54636;51.684;5.142;2022-07-18T02:18:11;102375.06;;;14.83;72.58
67840;BME280;54636;51.684;5.142;2022-07-18T02:20:36;102368.56;;;14.80;72.38
67840;BME280;54636;51.684;5.142;2022-07-18T02:23:03;102374.22;;;14.77;72.60
67840;BME280;54636;51.684;5.142;2022-07-18T02:25:29;102368.94;;;14.73;72.50
67840;BME280;54636;51.684;5.142;2022-07-18T02:27:57;102372.91;;;14.72;72.57
67840;BME280;54636;51.684;5.142;2022-07-18T02:30:23;102376.88;;;14.71;72.72
67840;BME280;54636;51.684;5.142;2022-07-18T02:32:48;102372.34;;;14.68;73.37
67840;BME280;54636;51.684;5.142;2022-07-18T02:35:13;102367.53;;;14.63;73.52
67840;BME280;54636;51.684;5.142;2022-07-18T02:37:39;102369.41;;;14.57;73.26
67840;BME280;54636;51.684;5.142;2022-07-18T02:40:08;102367.31;;;14.52;73.13
67840;BME280;54636;51.684;5.142;2022-07-18T02:42:33;102366.75;;;14.48;72.94
67840;BME280;54636;51.684;5.142;2022-07-18T02:44:59;102364.94;;;14.45;73.27
67840;BME280;54636;51.684;5.142;2022-07-18T02:47:24;102361.63;;;14.41;73.63
67840;BME280;54636;51.684;5.142;2022-07-18T02:49:50;102361.34;;;14.39;74.58
67840;BME280;54636;51.684;5.142;2022-07-18T02:52:15;102365.94;;;14.33;74.38
67840;BME280;54636;51.684;5.142;2022-07-18T02:54:40;102345.69;;;14.25;75.25
67840;BME280;54636;51.684;5.142;2022-07-18T02:57:06;102338.91;;;14.20;75.24
67840;BME280;54636;51.684;5.142;2022-07-18T02:59:32;102346.63;;;14.22;74.78
67840;BME280;54636;51.684;5.142;2022-07-18T03:01:58;102348.03;;;14.17;75.55
67840;BME280;54636;51.684;5.142;2022-07-18T03:04:24;102352.28;;;14.18;74.82
67840;BME280;54636;51.684;5.142;2022-07-18T03:06:51;102340.00;;;14.13;75.13
67840;BME280;54636;51.684;5.142;2022-07-18T03:09:17;102346.41;;;14.10;76.19
67840;BME280;54636;51.684;5.142;2022-07-18T03:11:43;102340.19;;;14.10;75.96
67840;BME280;54636;51.684;5.142;2022-07-18T03:14:09;102326.13;;;14.02;75.99
67840;BME280;54636;51.684;5.142;2022-07-18T03:16:35;102322.66;;;14.02;76.56
67840;BME280;54636;51.684;5.142;2022-07-18T03:19:00;102327.81;;;14.00;76.13
67840;BME280;54636;51.684;5.142;2022-07-18T03:21:25;102321.31;;;13.97;76.42
67840;BME280;54636;51.684;5.142;2022-07-18T03:23:51;102335.25;;;13.99;76.03
67840;BME280;54636;51.684;5.142;2022-07-18T03:26:16;102328.28;;;13.98;75.96
67840;BME280;54636;51.684;5.142;2022-07-18T03:28:42;102322.25;;;13.94;76.35
67840;BME280;54636;51.684;5.142;2022-07-18T03:31:07;102334.69;;;13.95;76.66
67840;BME280;54636;51.684;5.142;2022-07-18T03:33:33;102321.97;;;13.92;76.62
67840;BME280;54636;51.684;5.142;2022-07-18T03:35:58;102324.69;;;13.92;76.80
67840;BME280;54636;51.684;5.142;2022-07-18T03:38:24;102320.44;;;13.91;77.04
67840;BME280;54636;51.684;5.142;2022-07-18T03:40:49;102313.47;;;13.90;77.25
67840;BME280;54636;51.684;5.142;2022-07-18T03:43:14;102319.41;;;13.89;77.47
67840;BME280;54636;51.684;5.142;2022-07-18T03:45:40;102315.91;;;13.88;77.39
67840;BME280;54636;51.684;5.142;2022-07-18T03:48:05;102324.88;;;13.89;77.07
67840;BME280;54636;51.684;5.142;2022-07-18T03:50:31;102318.94;;;13.90;77.10
67840;BME280;54636;51.684;5.142;2022-07-18T03:52:56;102311.22;;;13.89;77.03
67840;BME280;54636;51.684;5.142;2022-07-18T03:55:22;102323.94;;;13.92;76.93
67840;BME280;54636;51.684;5.142;2022-07-18T03:57:47;102320.91;;;13.90;77.34
67840;BME280;54636;51.684;5.142;2022-07-18T04:00:14;102318.66;;;13.88;76.42
67840;BME280;54636;51.684;5.142;2022-07-18T04:02:45;102300.34;;;13.79;76.32
67840;BME280;54636;51.684;5.142;2022-07-18T04:05:11;102312.72;;;13.90;76.16
67840;BME280;54636;51.684;5.142;2022-07-18T04:07:40;102310.28;;;13.92;75.89
67840;BME280;54636;51.684;5.142;2022-07-18T04:10:07;102307.66;;;13.97;76.17
67840;BME280;54636;51.684;5.142;2022-07-18T04:12:34;102304.00;;;14.00;75.80
67840;BME280;54636;51.684;5.142;2022-07-18T04:14:59;102304.97;;;14.12;75.61
67840;BME280;54636;51.684;5.142;2022-07-18T04:17:25;102306.09;;;14.20;75.38
67840;BME280;54636;51.684;5.142;2022-07-18T04:19:51;102297.91;;;14.20;75.37
67840;BME280;54636;51.684;5.142;2022-07-18T04:22:17;102301.22;;;14.24;75.38
67840;BME280;54636;51.684;5.142;2022-07-18T04:24:42;102309.50;;;14.30;75.15
67840;BME280;54636;51.684;5.142;2022-07-18T04:27:08;102294.13;;;14.32;75.07
67840;BME280;54636;51.684;5.142;2022-07-18T04:29:33;102290.91;;;14.34;75.03
67840;BME280;54636;51.684;5.142;2022-07-18T04:32:01;102294.34;;;14.43;75.05
67840;BME280;54636;51.684;5.142;2022-07-18T04:34:26;102284.91;;;14.44;74.56
67840;BME280;54636;51.684;5.142;2022-07-18T04:36:52;102297.28;;;14.55;74.94
67840;BME280;54636;51.684;5.142;2022-07-18T04:39:17;102288.03;;;14.67;74.47
67840;BME280;54636;51.684;5.142;2022-07-18T04:41:43;102294.16;;;14.76;74.31
67840;BME280;54636;51.684;5.142;2022-07-18T04:44:08;102289.06;;;15.04;74.27
67840;BME280;54636;51.684;5.142;2022-07-18T04:46:34;102289.69;;;15.49;72.68
67840;BME280;54636;51.684;5.142;2022-07-18T04:48:59;102282.66;;;15.63;72.33
67840;BME280;54636;51.684;5.142;2022-07-18T04:51:25;102284.59;;;15.57;71.52
67840;BME280;54636;51.684;5.142;2022-07-18T04:53:50;102286.19;;;15.48;71.25
67840;BME280;54636;51.684;5.142;2022-07-18T04:56:16;102285.09;;;15.40;71.30
67840;BME280;54636;51.684;5.142;2022-07-18T04:58:41;102287.09;;;15.40;71.55
67840;BME280;54636;51.684;5.142;2022-07-18T05:01:06;102285.09;;;15.40;71.80
67840;BME280;54636;51.684;5.142;2022-07-18T05:03:32;102298.13;;;15.45;72.23
67840;BME280;54636;51.684;5.142;2022-07-18T05:05:57;102293.19;;;15.49;71.51
67840;BME280;54636;51.684;5.142;2022-07-18T05:08:22;102292.22;;;15.53;71.48
67840;BME280;54636;51.684;5.142;2022-07-18T05:10:48;102290.06;;;15.57;70.71
67840;BME280;54636;51.684;5.142;2022-07-18T05:13:13;102288.59;;;15.61;70.80
67840;BME280;54636;51.684;5.142;2022-07-18T05:15:39;102286.41;;;15.65;70.91
67840;BME280;54636;51.684;5.142;2022-07-18T05:18:04;102289.44;;;15.67;71.34
67840;BME280;54636;51.684;5.142;2022-07-18T05:20:30;102292.66;;;15.66;71.19
67840;BME280;54636;51.684;5.142;2022-07-18T05:22:55;102293.69;;;15.68;70.60
67840;BME280;54636;51.684;5.142;2022-07-18T05:25:22;102300.72;;;15.75;70.13
67840;BME280;54636;51.684;5.142;2022-07-18T05:27:48;102296.28;;;15.77;71.11
67840;BME280;54636;51.684;5.142;2022-07-18T05:30:14;102296.34;;;15.83;70.49
67840;BME280;54636;51.684;5.142;2022-07-18T05:32:41;102303.88;;;15.88;69.85
67840;BME280;54636;51.684;5.142;2022-07-18T05:35:08;102299.69;;;15.93;70.41
67840;BME280;54636;51.684;5.142;2022-07-18T05:37:34;102304.22;;;15.96;69.75
67840;BME280;54636;51.684;5.142;2022-07-18T05:40:04;102303.50;;;16.01;69.61
67840;BME280;54636;51.684;5.142;2022-07-18T05:42:30;102301.31;;;16.05;69.72
67840;BME280;54636;51.684;5.142;2022-07-18T05:44:56;102293.91;;;16.11;68.94
67840;BME280;54636;51.684;5.142;2022-07-18T05:47:21;102298.69;;;16.16;68.83
67840;BME280;54636;51.684;5.142;2022-07-18T05:49:46;102307.47;;;16.26;68.96
67840;BME280;54636;51.684;5.142;2022-07-18T05:52:12;102297.06;;;16.30;69.41
67840;BME280;54636;51.684;5.142;2022-07-18T05:54:37;102303.81;;;16.34;69.95
67840;BME280;54636;51.684;5.142;2022-07-18T05:57:03;102313.13;;;16.42;70.07
67840;BME280;54636;51.684;5.142;2022-07-18T05:59:28;102308.94;;;16.47;69.46
67840;BME280;54636;51.684;5.142;2022-07-18T06:01:54;102308.22;;;16.52;69.96
67840;BME280;54636;51.684;5.142;2022-07-18T06:04:19;102300.06;;;16.58;69.30
67840;BME280;54636;51.684;5.142;2022-07-18T06:06:45;102303.59;;;16.64;69.94
67840;BME280;54636;51.684;5.142;2022-07-18T06:09:11;102308.19;;;16.72;69.51
67840;BME280;54636;51.684;5.142;2022-07-18T06:11:37;102296.31;;;16.87;69.12
67840;BME280;54636;51.684;5.142;2022-07-18T06:14:03;102296.94;;;17.07;67.54
67840;BME280;54636;51.684;5.142;2022-07-18T06:16:29;102286.97;;;17.10;68.13
67840;BME280;54636;51.684;5.142;2022-07-18T06:18:56;102279.75;;;17.12;67.88
67840;BME280;54636;51.684;5.142;2022-07-18T06:21:21;102276.66;;;17.42;68.26
67840;BME280;54636;51.684;5.142;2022-07-18T06:23:46;102281.78;;;17.77;66.15
67840;BME280;54636;51.684;5.142;2022-07-18T06:26:12;102277.06;;;17.89;65.48
67840;BME280;54636;51.684;5.142;2022-07-18T06:28:37;102282.31;;;17.87;65.94
67840;BME280;54636;51.684;5.142;2022-07-18T06:31:03;102267.56;;;17.84;65.98
67840;BME280;54636;51.684;5.142;2022-07-18T06:33:28;102275.31;;;17.86;65.54
67840;BME280;54636;51.684;5.142;2022-07-18T06:35:53;102265.59;;;17.90;65.26
67840;BME280;54636;51.684;5.142;2022-07-18T06:38:19;102267.59;;;17.95;65.28
67840;BME280;54636;51.684;5.142;2022-07-18T06:40:44;102263.38;;;18.05;65.28
67840;BME280;54636;51.684;5.142;2022-07-18T06:43:10;102260.13;;;18.18;65.08
67840;BME280;54636;51.684;5.142;2022-07-18T06:45:35;102268.88;;;18.28;64.83
67840;BME280;54636;51.684;5.142;2022-07-18T06:48:01;102267.63;;;18.40;63.74
67840;BME280;54636;51.684;5.142;2022-07-18T06:50:26;102259.38;;;18.51;65.10
67840;BME280;54636;51.684;5.142;2022-07-18T06:52:52;102268.66;;;18.70;65.17
67840;BME280;54636;51.684;5.142;2022-07-18T06:55:17;102265.06;;;19.03;62.20
67840;BME280;54636;51.684;5.142;2022-07-18T06:57:43;102269.06;;;20.48;58.69
67840;BME280;54636;51.684;5.142;2022-07-18T07:00:10;102274.50;;;22.53;53.08
67840;BME280;54636;51.684;5.142;2022-07-18T07:02:44;102282.84;;;23.92;50.11
67840;BME280;54636;51.684;5.142;2022-07-18T07:05:10;102286.19;;;25.10;45.95
67840;BME280;54636;51.684;5.142;2022-07-18T07:07:36;102282.41;;;25.87;42.79
67840;BME280;54636;51.684;5.142;2022-07-18T07:10:02;102279.84;;;26.50;41.70
67840;BME280;54636;51.684;5.142;2022-07-18T07:12:28;102285.16;;;27.09;39.63
67840;BME280;54636;51.684;5.142;2022-07-18T07:14:53;102290.84;;;27.67;40.04
67840;BME280;54636;51.684;5.142;2022-07-18T07:17:19;102293.88;;;27.94;37.98
67840;BME280;54636;51.684;5.142;2022-07-18T07:19:44;102284.13;;;28.27;36.87
67840;BME280;54636;51.684;5.142;2022-07-18T07:22:10;102286.00;;;28.67;35.66
67840;BME280;54636;51.684;5.142;2022-07-18T07:24:35;102290.47;;;29.04;36.04
67840;BME280;54636;51.684;5.142;2022-07-18T07:27:03;102300.25;;;29.13;37.36
67840;BME280;54636;51.684;5.142;2022-07-18T07:29:29;102299.69;;;28.97;36.58
67840;BME280;54636;51.684;5.142;2022-07-18T07:31:54;102290.47;;;28.87;36.30
67840;BME280;54636;51.684;5.142;2022-07-18T07:34:20;102291.50;;;28.74;36.20
67840;BME280;54636;51.684;5.142;2022-07-18T07:36:45;102280.50;;;28.59;37.71
67840;BME280;54636;51.684;5.142;2022-07-18T07:39:11;102281.47;;;28.04;36.21
67840;BME280;54636;51.684;5.142;2022-07-18T07:41:36;102280.47;;;27.52;37.05
67840;BME280;54636;51.684;5.142;2022-07-18T07:44:02;102268.63;;;26.96;39.27
67840;BME280;54636;51.684;5.142;2022-07-18T07:46:27;102261.28;;;26.61;41.94
67840;BME280;54636;51.684;5.142;2022-07-18T07:48:53;102274.25;;;26.20;42.41
67840;BME280;54636;51.684;5.142;2022-07-18T07:51:18;102248.44;;;25.81;43.33
67840;BME280;54636;51.684;5.142;2022-07-18T07:53:44;102259.47;;;25.58;41.53
67840;BME280;54636;51.684;5.142;2022-07-18T07:56:09;102256.44;;;25.41;42.22
67840;BME280;54636;51.684;5.142;2022-07-18T07:58:36;102248.63;;;25.24;41.66
67840;BME280;54636;51.684;5.142;2022-07-18T08:01:01;102242.28;;;25.16;40.27
67840;BME280;54636;51.684;5.142;2022-07-18T08:03:26;102237.22;;;25.07;41.25
67840;BME280;54636;51.684;5.142;2022-07-18T08:05:52;102234.09;;;25.11;42.67
67840;BME280;54636;51.684;5.142;2022-07-18T08:08:18;102228.19;;;25.14;42.68
67840;BME280;54636;51.684;5.142;2022-07-18T08:10:44;102224.50;;;25.19;42.21
67840;BME280;54636;51.684;5.142;2022-07-18T08:13:11;102228.59;;;25.26;41.83
67840;BME280;54636;51.684;5.142;2022-07-18T08:15:36;102228.25;;;25.37;43.01
67840;BME280;54636;51.684;5.142;2022-07-18T08:18:02;102235.91;;;25.52;42.08
67840;BME280;54636;51.684;5.142;2022-07-18T08:20:28;102240.94;;;25.61;41.67
67840;BME280;54636;51.684;5.142;2022-07-18T08:22:55;102243.03;;;25.68;39.50
67840;BME280;54636;51.684;5.142;2022-07-18T08:25:21;102246.19;;;25.80;39.40
67840;BME280;54636;51.684;5.142;2022-07-18T08:27:47;102246.22;;;25.87;40.03
67840;BME280;54636;51.684;5.142;2022-07-18T08:30:12;102251.22;;;25.81;39.05
67840;BME280;54636;51.684;5.142;2022-07-18T08:32:38;102254.75;;;25.89;41.32
67840;BME280;54636;51.684;5.142;2022-07-18T08:35:04;102252.69;;;26.05;41.63
67840;BME280;54636;51.684;5.142;2022-07-18T08:37:29;102242.31;;;26.21;41.37
67840;BME280;54636;51.684;5.142;2022-07-18T08:39:55;102249.97;;;26.36;39.59
67840;BME280;54636;51.684;5.142;2022-07-18T08:42:24;102245.13;;;26.51;39.90
67840;BME280;54636;51.684;5.142;2022-07-18T08:44:51;102241.94;;;26.63;38.66
67840;BME280;54636;51.684;5.142;2022-07-18T08:47:19;102243.38;;;26.79;39.92
67840;BME280;54636;51.684;5.142;2022-07-18T08:49:45;102237.56;;;26.92;39.32
67840;BME280;54636;51.684;5.142;2022-07-18T08:52:11;102233.47;;;27.01;37.95
67840;BME280;54636;51.684;5.142;2022-07-18T08:54:36;102235.53;;;27.00;37.35
67840;BME280;54636;51.684;5.142;2022-07-18T08:57:02;102243.06;;;27.22;38.78
67840;BME280;54636;51.684;5.142;2022-07-18T08:59:27;102234.31;;;27.26;35.89
67840;BME280;54636;51.684;5.142;2022-07-18T09:01:53;102246.97;;;27.27;36.41
67840;BME280;54636;51.684;5.142;2022-07-18T09:04:37;102234.97;;;27.42;38.75
67840;BME280;54636;51.684;5.142;2022-07-18T09:07:03;102240.09;;;27.61;37.30
67840;BME280;54636;51.684;5.142;2022-07-18T09:09:29;102244.44;;;27.79;36.80
67840;BME280;54636;51.684;5.142;2022-07-18T09:12:00;102245.97;;;27.97;37.93
67840;BME280;54636;51.684;5.142;2022-07-18T09:14:33;102249.66;;;28.00;37.54
67840;BME280;54636;51.684;5.142;2022-07-18T09:17:02;102250.59;;;28.02;36.04
67840;BME280;54636;51.684;5.142;2022-07-18T09:19:28;102251.22;;;28.18;35.32
67840;BME280;54636;51.684;5.142;2022-07-18T09:21:53;102243.69;;;28.28;35.58
67840;BME280;54636;51.684;5.142;2022-07-18T09:24:18;102253.25;;;28.42;37.60
67840;BME280;54636;51.684;5.142;2022-07-18T09:26:44;102252.53;;;28.42;33.83
67840;BME280;54636;51.684;5.142;2022-07-18T09:29:15;102248.97;;;28.41;34.39
67840;BME280;54636;51.684;5.142;2022-07-18T09:31:51;102253.34;;;28.52;34.50
67840;BME280;54636;51.684;5.142;2022-07-18T09:34:36;102255.56;;;28.71;35.24
67840;BME280;54636;51.684;5.142;2022-07-18T09:37:02;102245.63;;;28.77;33.25
67840;BME280;54636;51.684;5.142;2022-07-18T09:39:27;102252.88;;;28.98;33.79
67840;BME280;54636;51.684;5.142;2022-07-18T09:42:12;102246.44;;;29.22;35.28
67840;BME280;54636;51.684;5.142;2022-07-18T09:44:37;102242.25;;;29.40;34.48
67840;BME280;54636;51.684;5.142;2022-07-18T09:47:04;102244.84;;;29.56;33.25
67840;BME280;54636;51.684;5.142;2022-07-18T09:49:33;102237.25;;;29.66;34.87
67840;BME280;54636;51.684;5.142;2022-07-18T09:52:07;102240.47;;;29.62;33.01
67840;BME280;54636;51.684;5.142;2022-07-18T09:54:40;102240.84;;;29.76;33.25
67840;BME280;54636;51.684;5.142;2022-07-18T09:57:05;102239.63;;;29.69;30.90
67840;BME280;54636;51.684;5.142;2022-07-18T09:59:32;102237.13;;;29.73;31.36
67840;BME280;54636;51.684;5.142;2022-07-18T10:01:58;102224.34;;;29.80;31.64
67840;BME280;54636;51.684;5.142;2022-07-18T10:04:24;102237.34;;;29.95;31.41
67840;BME280;54636;51.684;5.142;2022-07-18T10:06:49;102226.03;;;30.02;31.31
67840;BME280;54636;51.684;5.142;2022-07-18T10:09:15;102226.66;;;30.10;30.57
67840;BME280;54636;51.684;5.142;2022-07-18T10:11:41;102230.66;;;30.17;33.96
67840;BME280;54636;51.684;5.142;2022-07-18T10:14:08;102227.72;;;30.25;34.05
67840;BME280;54636;51.684;5.142;2022-07-18T10:16:34;102218.75;;;30.36;32.84
67840;BME280;54636;51.684;5.142;2022-07-18T10:18:59;102218.75;;;30.45;32.23
67840;BME280;54636;51.684;5.142;2022-07-18T10:21:25;102217.88;;;30.43;30.18
67840;BME280;54636;51.684;5.142;2022-07-18T10:23:55;102215.50;;;30.59;32.37
67840;BME280;54636;51.684;5.142;2022-07-18T10:26:21;102221.41;;;30.63;30.67
67840;BME280;54636;51.684;5.142;2022-07-18T10:31:39;102215.50;;;30.59;31.04
67840;BME280;54636;51.684;5.142;2022-07-18T10:36:29;102223.63;;;30.74;30.53
67840;BME280;54636;51.684;5.142;2022-07-18T10:39:10;102227.31;;;30.76;30.50
67840;BME280;54636;51.684;5.142;2022-07-18T11:00:00;102206.16;;;31.24;27.10
67840;BME280;54636;51.684;5.142;2022-07-18T11:16:00;102197.19;;;31.47;27.84
67840;BME280;54636;51.684;5.142;2022-07-18T11:23:48;102192.19;;;31.45;27.94
67840;BME280;54636;51.684;5.142;2022-07-18T11:26:22;102182.38;;;31.56;26.86
67840;BME280;54636;51.684;5.142;2022-07-18T11:28:56;102190.63;;;31.73;28.08
67840;BME280;54636;51.684;5.142;2022-07-18T11:31:22;102182.06;;;31.92;27.01
67840;BME280;54636;51.684;5.142;2022-07-18T11:33:49;102182.31;;;31.96;24.72
67840;BME280;54636;51.684;5.142;2022-07-18T11:36:16;102181.13;;;31.99;26.58
67840;BME280;54636;51.684;5.142;2022-07-18T11:38:47;102175.38;;;31.97;25.36
67840;BME280;54636;51.684;5.142;2022-07-18T11:41:13;102180.66;;;32.03;24.68
67840;BME280;54636;51.684;5.142;2022-07-18T11:43:39;102173.50;;;32.12;26.76
67840;BME280;54636;51.684;5.142;2022-07-18T11:46:10;102167.06;;;32.21;26.97
67840;BME280;54636;51.684;5.142;2022-07-18T11:48:37;102170.59;;;32.31;26.22
67840;BME280;54636;51.684;5.142;2022-07-18T11:51:08;102168.63;;;32.33;26.63
67840;BME280;54636;51.684;5.142;2022-07-18T11:53:34;102169.09;;;32.30;26.21
67840;BME280;54636;51.684;5.142;2022-07-18T11:56:03;102166.69;;;32.36;26.43
67840;BME280;54636;51.684;5.142;2022-07-18T11:58:38;102170.16;;;32.46;27.37
67840;BME280;54636;51.684;5.142;2022-07-18T12:01:04;102164.31;;;32.54;25.98
67840;BME280;54636;51.684;5.142;2022-07-18T12:03:30;102170.31;;;32.60;27.15
67840;BME280;54636;51.684;5.142;2022-07-18T12:05:58;102159.53;;;32.56;24.92
67840;BME280;54636;51.684;5.142;2022-07-18T12:08:40;102148.34;;;32.35;26.01
67840;BME280;54636;51.684;5.142;2022-07-18T12:11:25;102149.75;;;32.46;27.93
67840;BME280;54636;51.684;5.142;2022-07-18T12:21:53;102149.66;;;32.67;25.80
67840;BME280;54636;51.684;5.142;2022-07-18T12:24:24;102152.13;;;32.72;24.86
67840;BME280;54636;51.684;5.142;2022-07-18T12:27:07;102151.53;;;32.74;26.04
67840;BME280;54636;51.684;5.142;2022-07-18T12:32:53;102152.97;;;32.63;27.38
67840;BME280;54636;51.684;5.142;2022-07-18T12:35:30;102142.91;;;32.60;27.04
67840;BME280;54636;51.684;5.142;2022-07-18T12:38:09;102153.34;;;32.69;26.72
67840;BME280;54636;51.684;5.142;2022-07-18T12:43:30;102135.94;;;32.50;25.25
67840;BME280;54636;51.684;5.142;2022-07-18T12:46:02;102138.13;;;32.51;25.18
67840;BME280;54636;51.684;5.142;2022-07-18T12:48:30;102132.41;;;32.61;25.78
67840;BME280;54636;51.684;5.142;2022-07-18T12:50:59;102132.53;;;32.63;25.39
67840;BME280;54636;51.684;5.142;2022-07-18T12:53:26;102130.47;;;32.63;26.01
67840;BME280;54636;51.684;5.142;2022-07-18T12:55:51;102129.25;;;32.66;24.49
67840;BME280;54636;51.684;5.142;2022-07-18T12:58:17;102121.53;;;32.67;25.69
67840;BME280;54636;51.684;5.142;2022-07-18T13:00:42;102101.97;;;32.69;24.93
67840;BME280;54636;51.684;5.142;2022-07-18T13:03:09;102107.97;;;32.75;25.21
67840;BME280;54636;51.684;5.142;2022-07-18T13:05:35;102106.66;;;32.76;24.92
67840;BME280;54636;51.684;5.142;2022-07-18T13:08:01;102100.56;;;32.80;25.99
67840;BME280;54636;51.684;5.142;2022-07-18T13:10:26;102106.66;;;32.76;25.56
67840;BME280;54636;51.684;5.142;2022-07-18T13:12:52;102111.06;;;32.79;25.46
67840;BME280;54636;51.684;5.142;2022-07-18T13:15:18;102098.00;;;32.84;24.68
67840;BME280;54636;51.684;5.142;2022-07-18T13:17:46;102102.75;;;32.81;24.23
67840;BME280;54636;51.684;5.142;2022-07-18T13:20:14;102093.19;;;32.74;24.14
67840;BME280;54636;51.684;5.142;2022-07-18T13:22:40;102101.72;;;32.65;23.72
67840;BME280;54636;51.684;5.142;2022-07-18T13:25:07;102099.72;;;32.56;23.88
67840;BME280;54636;51.684;5.142;2022-07-18T13:27:33;102096.31;;;32.57;24.05
67840;BME280;54636;51.684;5.142;2022-07-18T13:29:58;102092.78;;;32.57;24.41
67840;BME280;54636;51.684;5.142;2022-07-18T13:32:27;102094.25;;;32.58;24.12
67840;BME280;54636;51.684;5.142;2022-07-18T13:34:52;102092.28;;;32.60;23.61
67840;BME280;54636;51.684;5.142;2022-07-18T13:37:17;102095.84;;;32.61;24.57
67840;BME280;54636;51.684;5.142;2022-07-18T13:39:43;102090.94;;;32.61;23.90
67840;BME280;54636;51.684;5.142;2022-07-18T13:42:08;102083.63;;;32.68;23.68
67840;BME280;54636;51.684;5.142;2022-07-18T13:44:34;102086.19;;;32.64;23.76